sensor_id;sensor_type;location;lat;lon;timestamp;P1;durP1;ratioP1;P2;durP2;ratioP2
44026;SDS011;29696;55.698;37.460;2023-06-26T00:01:39;32.95;;;13.52;;
44026;SDS011;29696;55.698;37.460;2023-06-26T00:04:05;38.10;;;13.73;;
44026;SDS011;29696;55.698;37.460;2023-06-26T00:06:32;59.03;;;14.63;;
44026;SDS011;29696;55.698;37.460;2023-06-26T00:08:58;44.00;;;15.98;;
44026;SDS011;29696;55.698;37.460;2023-06-26T00:11:24;26.27;;;14.02;;
44026;SDS011;29696;55.698;37.460;2023-06-26T00:13:53;28.77;;;12.45;;
44026;SDS011;29696;55.698;37.460;2023-06-26T00:16:19;29.23;;;13.93;;
44026;SDS011;29696;55.698;37.460;2023-06-26T00:18:46;26.38;;;13.10;;
44026;SDS011;29696;55.698;37.460;2023-06-26T00:21:13;20.23;;;12.25;;
44026;SDS011;29696;55.698;37.460;2023-06-26T00:23:39;32.67;;;13.57;;
44026;SDS011;29696;55.698;37.460;2023-06-26T00:26:05;27.05;;;14.15;;
44026;SDS011;29696;55.698;37.460;2023-06-26T00:28:32;27.83;;;12.38;;
44026;SDS011;29696;55.698;37.460;2023-06-26T00:30:58;27.45;;;11.90;;
44026;SDS011;29696;55.698;37.460;2023-06-26T00:33:24;20.67;;;12.02;;
44026;SDS011;29696;55.698;37.460;2023-06-26T00:35:51;22.65;;;12.07;;
44026;SDS011;29696;55.698;37.460;2023-06-26T00:38:17;26.13;;;12.80;;
44026;SDS011;29696;55.698;37.460;2023-06-26T00:40:44;21.63;;;13.13;;
44026;SDS011;29696;55.698;37.460;2023-06-26T00:43:11;21.23;;;10.43;;
44026;SDS011;29696;55.698;37.460;2023-06-26T00:45:37;21.55;;;11.68;;
44026;SDS011;29696;55.698;37.460;2023-06-26T00:48:04;33.67;;;13.65;;
44026;SDS011;29696;55.698;37.460;2023-06-26T00:50:31;24.20;;;12.10;;
44026;SDS011;29696;55.698;37.460;2023-06-26T00:52:58;29.13;;;12.45;;
44026;SDS011;29696;55.698;37.460;2023-06-26T00:55:27;16.38;;;12.05;;
44026;SDS011;29696;55.698;37.460;2023-06-26T00:57:54;24.98;;;11.82;;
44026;SDS011;29696;55.698;37.460;2023-06-26T01:00:21;18.85;;;11.70;;
44026;SDS011;29696;55.698;37.460;2023-06-26T01:02:48;19.73;;;10.45;;
44026;SDS011;29696;55.698;37.460;2023-06-26T01:05:14;19.48;;;12.95;;
44026;SDS011;29696;55.698;37.460;2023-06-26T01:07:49;31.77;;;13.00;;
44026;SDS011;29696;55.698;37.460;2023-06-26T01:10:18;18.95;;;12.00;;
44026;SDS011;29696;55.698;37.460;2023-06-26T01:12:45;22.00;;;11.68;;
44026;SDS011;29696;55.698;37.460;2023-06-26T01:15:12;22.50;;;12.70;;
44026;SDS011;29696;55.698;37.460;2023-06-26T01:17:38;26.33;;;12.18;;
44026;SDS011;29696;55.698;37.460;2023-06-26T01:20:06;19.08;;;12.27;;
44026;SDS011;29696;55.698;37.460;2023-06-26T01:25:35;21.45;;;12.32;;
44026;SDS011;29696;55.698;37.460;2023-06-26T01:28:09;21.35;;;11.55;;
44026;SDS011;29696;55.698;37.460;2023-06-26T01:30:38;20.65;;;11.35;;
44026;SDS011;29696;55.698;37.460;2023-06-26T01:33:09;21.83;;;12.85;;
44026;SDS011;29696;55.698;37.460;2023-06-26T01:35:35;26.60;;;12.48;;
44026;SDS011;29696;55.698;37.460;2023-06-26T01:38:39;23.65;;;12.70;;
44026;SDS011;29696;55.698;37.460;2023-06-26T01:40:59;22.55;;;12.27;;
44026;SDS011;29696;55.698;37.460;2023-06-26T01:43:43;25.95;;;10.48;;
44026;SDS011;29696;55.698;37.460;2023-06-26T01:52:43;30.48;;;12.80;;
44026;SDS011;29696;55.698;37.460;2023-06-26T01:55:21;23.67;;;11.38;;
44026;SDS011;29696;55.698;37.460;2023-06-26T01:58:03;29.42;;;13.07;;
44026;SDS011;29696;55.698;37.460;2023-06-26T02:00:30;25.02;;;12.63;;
44026;SDS011;29696;55.698;37.460;2023-06-26T02:02:57;25.35;;;13.68;;
44026;SDS011;29696;55.698;37.460;2023-06-26T02:05:24;25.00;;;13.60;;
44026;SDS011;29696;55.698;37.460;2023-06-26T02:07:50;28.52;;;14.10;;
44026;SDS011;29696;55.698;37.460;2023-06-26T02:10:17;25.83;;;13.48;;
44026;SDS011;29696;55.698;37.460;2023-06-26T02:12:46;29.98;;;14.50;;
44026;SDS011;29696;55.698;37.460;2023-06-26T02:15:15;38.13;;;14.43;;
44026;SDS011;29696;55.698;37.460;2023-06-26T02:17:42;36.17;;;15.25;;
44026;SDS011;29696;55.698;37.460;2023-06-26T02:20:08;34.13;;;14.43;;
44026;SDS011;29696;55.698;37.460;2023-06-26T02:22:36;31.05;;;13.23;;
44026;SDS011;29696;55.698;37.460;2023-06-26T02:25:03;42.45;;;13.38;;
44026;SDS011;29696;55.698;37.460;2023-06-26T02:27:32;39.53;;;13.60;;
44026;SDS011;29696;55.698;37.460;2023-06-26T02:29:58;20.67;;;12.88;;
44026;SDS011;29696;55.698;37.460;2023-06-26T02:32:25;29.27;;;11.05;;
44026;SDS011;29696;55.698;37.460;2023-06-26T02:34:51;28.60;;;13.95;;
44026;SDS011;29696;55.698;37.460;2023-06-26T02:37:18;21.75;;;12.25;;
44026;SDS011;29696;55.698;37.460;2023-06-26T02:39:45;26.70;;;13.30;;
44026;SDS011;29696;55.698;37.460;2023-06-26T02:42:11;26.83;;;15.30;;
44026;SDS011;29696;55.698;37.460;2023-06-26T02:44:38;23.27;;;14.30;;
44026;SDS011;29696;55.698;37.460;2023-06-26T02:47:04;28.10;;;14.77;;
44026;SDS011;29696;55.698;37.460;2023-06-26T02:49:32;26.15;;;12.75;;
44026;SDS011;29696;55.698;37.460;2023-06-26T02:51:58;22.70;;;14.10;;
44026;SDS011;29696;55.698;37.460;2023-06-26T02:54:27;24.50;;;12.88;;
44026;SDS011;29696;55.698;37.460;2023-06-26T02:57:00;28.65;;;13.90;;
44026;SDS011;29696;55.698;37.460;2023-06-26T02:59:29;23.35;;;13.07;;
44026;SDS011;29696;55.698;37.460;2023-06-26T03:01:56;23.23;;;12.63;;
44026;SDS011;29696;55.698;37.460;2023-06-26T03:04:29;23.52;;;13.00;;
44026;SDS011;29696;55.698;37.460;2023-06-26T03:06:56;21.48;;;11.05;;
44026;SDS011;29696;55.698;37.460;2023-06-26T03:09:22;22.38;;;13.10;;
44026;SDS011;29696;55.698;37.460;2023-06-26T03:11:49;20.55;;;12.73;;
44026;SDS011;29696;55.698;37.460;2023-06-26T03:14:16;23.15;;;13.07;;
44026;SDS011;29696;55.698;37.460;2023-06-26T03:16:42;22.45;;;13.07;;
44026;SDS011;29696;55.698;37.460;2023-06-26T03:19:08;25.00;;;11.98;;
44026;SDS011;29696;55.698;37.460;2023-06-26T03:21:55;21.67;;;12.82;;
44026;SDS011;29696;55.698;37.460;2023-06-26T03:24:22;26.98;;;13.50;;
44026;SDS011;29696;55.698;37.460;2023-06-26T03:26:48;24.60;;;12.93;;
44026;SDS011;29696;55.698;37.460;2023-06-26T03:29:15;24.60;;;13.35;;
44026;SDS011;29696;55.698;37.460;2023-06-26T03:31:41;20.75;;;13.02;;
44026;SDS011;29696;55.698;37.460;2023-06-26T03:34:07;22.58;;;14.88;;
44026;SDS011;29696;55.698;37.460;2023-06-26T03:36:34;17.85;;;13.10;;
44026;SDS011;29696;55.698;37.460;2023-06-26T03:39:02;19.00;;;12.43;;
44026;SDS011;29696;55.698;37.460;2023-06-26T03:41:30;19.65;;;12.75;;
44026;SDS011;29696;55.698;37.460;2023-06-26T03:43:56;23.05;;;13.43;;
44026;SDS011;29696;55.698;37.460;2023-06-26T03:46:28;21.30;;;11.77;;
44026;SDS011;29696;55.698;37.460;2023-06-26T03:48:57;20.75;;;12.25;;
44026;SDS011;29696;55.698;37.460;2023-06-26T03:51:23;18.52;;;11.95;;
44026;SDS011;29696;55.698;37.460;2023-06-26T03:53:50;15.13;;;11.90;;
44026;SDS011;29696;55.698;37.460;2023-06-26T03:56:16;13.55;;;10.05;;
44026;SDS011;29696;55.698;37.460;2023-06-26T03:58:43;15.73;;;10.55;;
44026;SDS011;29696;55.698;37.460;2023-06-26T04:01:10;12.48;;;9.98;;
44026;SDS011;29696;55.698;37.460;2023-06-26T04:03:37;12.50;;;8.48;;
44026;SDS011;29696;55.698;37.460;2023-06-26T04:06:03;12.90;;;8.90;;
44026;SDS011;29696;55.698;37.460;2023-06-26T04:08:29;10.18;;;8.35;;
44026;SDS011;29696;55.698;37.460;2023-06-26T04:10:56;9.90;;;8.00;;
44026;SDS011;29696;55.698;37.460;2023-06-26T04:13:24;11.27;;;8.38;;
44026;SDS011;29696;55.698;37.460;2023-06-26T04:15:50;11.35;;;8.05;;
44026;SDS011;29696;55.698;37.460;2023-06-26T04:18:17;10.23;;;8.30;;
44026;SDS011;29696;55.698;37.460;2023-06-26T04:21:06;8.77;;;7.50;;
44026;SDS011;29696;55.698;37.460;2023-06-26T04:23:34;14.88;;;9.10;;
44026;SDS011;29696;55.698;37.460;2023-06-26T04:26:01;11.25;;;9.20;;
44026;SDS011;29696;55.698;37.460;2023-06-26T04:28:28;11.60;;;8.93;;
44026;SDS011;29696;55.698;37.460;2023-06-26T04:30:54;11.75;;;9.55;;
44026;SDS011;29696;55.698;37.460;2023-06-26T04:33:21;13.65;;;9.02;;
44026;SDS011;29696;55.698;37.460;2023-06-26T04:35:47;13.32;;;7.45;;
44026;SDS011;29696;55.698;37.460;2023-06-26T04:38:15;11.88;;;8.35;;
44026;SDS011;29696;55.698;37.460;2023-06-26T04:40:41;10.52;;;8.40;;
44026;SDS011;29696;55.698;37.460;2023-06-26T04:43:08;9.30;;;8.15;;
44026;SDS011;29696;55.698;37.460;2023-06-26T04:45:34;9.32;;;7.60;;
44026;SDS011;29696;55.698;37.460;2023-06-26T04:48:01;9.15;;;7.57;;
44026;SDS011;29696;55.698;37.460;2023-06-26T04:50:28;9.40;;;7.57;;
44026;SDS011;29696;55.698;37.460;2023-06-26T04:52:55;15.75;;;7.90;;
44026;SDS011;29696;55.698;37.460;2023-06-26T04:55:23;12.77;;;8.85;;
44026;SDS011;29696;55.698;37.460;2023-06-26T04:57:50;11.40;;;8.90;;
44026;SDS011;29696;55.698;37.460;2023-06-26T05:00:17;12.35;;;8.88;;
44026;SDS011;29696;55.698;37.460;2023-06-26T05:02:44;10.95;;;8.77;;
44026;SDS011;29696;55.698;37.460;2023-06-26T05:05:11;10.82;;;9.55;;
44026;SDS011;29696;55.698;37.460;2023-06-26T05:07:37;13.40;;;10.35;;
44026;SDS011;29696;55.698;37.460;2023-06-26T05:10:04;19.65;;;9.90;;
44026;SDS011;29696;55.698;37.460;2023-06-26T05:12:31;11.77;;;9.80;;
44026;SDS011;29696;55.698;37.460;2023-06-26T05:14:57;14.38;;;11.18;;
44026;SDS011;29696;55.698;37.460;2023-06-26T05:17:24;13.40;;;8.23;;
44026;SDS011;29696;55.698;37.460;2023-06-26T05:19:50;11.35;;;8.45;;
44026;SDS011;29696;55.698;37.460;2023-06-26T05:22:16;10.35;;;8.27;;
44026;SDS011;29696;55.698;37.460;2023-06-26T05:24:43;13.38;;;8.75;;
44026;SDS011;29696;55.698;37.460;2023-06-26T05:27:13;11.75;;;8.85;;
44026;SDS011;29696;55.698;37.460;2023-06-26T05:29:47;13.07;;;8.70;;
44026;SDS011;29696;55.698;37.460;2023-06-26T05:32:15;10.63;;;6.60;;
44026;SDS011;29696;55.698;37.460;2023-06-26T05:34:48;11.00;;;7.15;;
44026;SDS011;29696;55.698;37.460;2023-06-26T05:37:21;12.88;;;7.45;;
44026;SDS011;29696;55.698;37.460;2023-06-26T05:39:48;8.90;;;6.93;;
44026;SDS011;29696;55.698;37.460;2023-06-26T05:42:15;8.20;;;6.85;;
44026;SDS011;29696;55.698;37.460;2023-06-26T05:44:41;10.23;;;7.75;;
44026;SDS011;29696;55.698;37.460;2023-06-26T05:47:08;5.45;;;4.95;;
44026;SDS011;29696;55.698;37.460;2023-06-26T05:49:34;6.93;;;6.20;;
44026;SDS011;29696;55.698;37.460;2023-06-26T05:52:00;12.18;;;5.90;;
44026;SDS011;29696;55.698;37.460;2023-06-26T05:54:27;10.98;;;5.70;;
44026;SDS011;29696;55.698;37.460;2023-06-26T05:56:56;6.30;;;5.68;;
44026;SDS011;29696;55.698;37.460;2023-06-26T05:59:26;6.80;;;5.93;;
44026;SDS011;29696;55.698;37.460;2023-06-26T06:01:53;8.68;;;6.32;;
44026;SDS011;29696;55.698;37.460;2023-06-26T06:04:19;8.23;;;5.85;;
44026;SDS011;29696;55.698;37.460;2023-06-26T06:06:46;8.20;;;5.35;;
44026;SDS011;29696;55.698;37.460;2023-06-26T06:09:12;5.43;;;4.82;;
44026;SDS011;29696;55.698;37.460;2023-06-26T06:11:38;8.73;;;5.47;;
44026;SDS011;29696;55.698;37.460;2023-06-26T06:14:05;6.13;;;5.25;;
44026;SDS011;29696;55.698;37.460;2023-06-26T06:16:31;7.15;;;5.55;;
44026;SDS011;29696;55.698;37.460;2023-06-26T06:18:57;6.65;;;5.68;;
44026;SDS011;29696;55.698;37.460;2023-06-26T06:21:24;7.45;;;5.40;;
44026;SDS011;29696;55.698;37.460;2023-06-26T06:23:50;8.95;;;5.60;;
44026;SDS011;29696;55.698;37.460;2023-06-26T06:26:16;6.00;;;5.40;;
44026;SDS011;29696;55.698;37.460;2023-06-26T06:28:43;8.40;;;5.90;;
44026;SDS011;29696;55.698;37.460;2023-06-26T06:31:09;5.78;;;5.18;;
44026;SDS011;29696;55.698;37.460;2023-06-26T06:33:35;6.65;;;5.15;;
44026;SDS011;29696;55.698;37.460;2023-06-26T06:36:02;5.80;;;5.30;;
44026;SDS011;29696;55.698;37.460;2023-06-26T06:38:28;5.72;;;5.13;;
44026;SDS011;29696;55.698;37.460;2023-06-26T06:40:54;7.28;;;4.82;;
44026;SDS011;29696;55.698;37.460;2023-06-26T06:43:20;5.55;;;4.95;;
44026;SDS011;29696;55.698;37.460;2023-06-26T06:45:47;9.25;;;6.15;;
44026;SDS011;29696;55.698;37.460;2023-06-26T06:48:13;5.55;;;5.00;;
44026;SDS011;29696;55.698;37.460;2023-06-26T06:50:39;8.32;;;5.45;;
44026;SDS011;29696;55.698;37.460;2023-06-26T06:53:06;7.75;;;5.82;;
44026;SDS011;29696;55.698;37.460;2023-06-26T06:55:33;5.55;;;4.95;;
44026;SDS011;29696;55.698;37.460;2023-06-26T06:58:00;6.13;;;5.50;;
44026;SDS011;29696;55.698;37.460;2023-06-26T07:00:26;5.90;;;4.75;;
44026;SDS011;29696;55.698;37.460;2023-06-26T07:02:52;5.63;;;5.13;;
44026;SDS011;29696;55.698;37.460;2023-06-26T07:05:19;5.25;;;4.75;;
44026;SDS011;29696;55.698;37.460;2023-06-26T07:07:45;4.78;;;4.38;;
44026;SDS011;29696;55.698;37.460;2023-06-26T07:10:13;5.05;;;4.55;;
44026;SDS011;29696;55.698;37.460;2023-06-26T07:12:40;12.55;;;4.85;;
44026;SDS011;29696;55.698;37.460;2023-06-26T07:15:06;11.18;;;5.63;;
44026;SDS011;29696;55.698;37.460;2023-06-26T07:17:34;10.52;;;6.10;;
44026;SDS011;29696;55.698;37.460;2023-06-26T07:20:01;5.00;;;4.50;;
44026;SDS011;29696;55.698;37.460;2023-06-26T07:22:32;5.85;;;4.38;;
44026;SDS011;29696;55.698;37.460;2023-06-26T07:24:58;12.48;;;9.00;;
44026;SDS011;29696;55.698;37.460;2023-06-26T07:27:25;8.02;;;4.97;;
44026;SDS011;29696;55.698;37.460;2023-06-26T07:29:51;7.45;;;5.22;;
44026;SDS011;29696;55.698;37.460;2023-06-26T07:32:18;7.88;;;4.55;;
44026;SDS011;29696;55.698;37.460;2023-06-26T07:34:44;15.45;;;5.30;;
44026;SDS011;29696;55.698;37.460;2023-06-26T07:37:10;6.78;;;4.82;;
44026;SDS011;29696;55.698;37.460;2023-06-26T07:39:36;5.63;;;4.00;;
44026;SDS011;29696;55.698;37.460;2023-06-26T07:42:03;6.13;;;4.97;;
44026;SDS011;29696;55.698;37.460;2023-06-26T07:44:30;6.70;;;3.88;;
44026;SDS011;29696;55.698;37.460;2023-06-26T07:46:56;8.48;;;3.88;;
44026;SDS011;29696;55.698;37.460;2023-06-26T07:49:22;5.80;;;4.88;;
44026;SDS011;29696;55.698;37.460;2023-06-26T07:51:49;7.90;;;4.90;;
44026;SDS011;29696;55.698;37.460;2023-06-26T07:54:15;5.78;;;4.55;;
44026;SDS011;29696;55.698;37.460;2023-06-26T07:56:57;5.97;;;5.20;;
44026;SDS011;29696;55.698;37.460;2023-06-26T07:59:26;5.40;;;4.93;;
44026;SDS011;29696;55.698;37.460;2023-06-26T08:01:53;5.10;;;4.60;;
44026;SDS011;29696;55.698;37.460;2023-06-26T08:04:21;8.35;;;4.30;;
44026;SDS011;29696;55.698;37.460;2023-06-26T08:06:51;7.50;;;5.30;;
44026;SDS011;29696;55.698;37.460;2023-06-26T08:09:19;8.90;;;6.18;;
44026;SDS011;29696;55.698;37.460;2023-06-26T08:11:47;10.50;;;6.85;;
44026;SDS011;29696;55.698;37.460;2023-06-26T08:14:13;7.30;;;6.50;;
44026;SDS011;29696;55.698;37.460;2023-06-26T08:16:41;9.18;;;5.80;;
44026;SDS011;29696;55.698;37.460;2023-06-26T08:19:08;13.32;;;7.13;;
44026;SDS011;29696;55.698;37.460;2023-06-26T08:21:34;8.23;;;6.10;;
44026;SDS011;29696;55.698;37.460;2023-06-26T08:24:01;5.93;;;5.20;;
44026;SDS011;29696;55.698;37.460;2023-06-26T08:26:28;9.38;;;5.97;;
44026;SDS011;29696;55.698;37.460;2023-06-26T08:28:54;10.23;;;6.13;;
44026;SDS011;29696;55.698;37.460;2023-06-26T08:31:21;17.27;;;9.68;;
44026;SDS011;29696;55.698;37.460;2023-06-26T08:33:47;12.98;;;11.02;;
44026;SDS011;29696;55.698;37.460;2023-06-26T08:36:13;8.93;;;8.02;;
44026;SDS011;29696;55.698;37.460;2023-06-26T08:38:41;11.05;;;6.82;;
44026;SDS011;29696;55.698;37.460;2023-06-26T08:41:07;10.13;;;6.28;;
44026;SDS011;29696;55.698;37.460;2023-06-26T08:43:34;9.55;;;6.57;;
44026;SDS011;29696;55.698;37.460;2023-06-26T08:46:02;9.98;;;6.13;;
44026;SDS011;29696;55.698;37.460;2023-06-26T08:48:32;10.57;;;7.00;;
44026;SDS011;29696;55.698;37.460;2023-06-26T08:51:08;7.15;;;6.45;;
44026;SDS011;29696;55.698;37.460;2023-06-26T08:56:24;12.20;;;7.95;;
44026;SDS011;29696;55.698;37.460;2023-06-26T08:58:54;8.20;;;5.97;;
44026;SDS011;29696;55.698;37.460;2023-06-26T09:01:21;6.72;;;5.90;;
44026;SDS011;29696;55.698;37.460;2023-06-26T09:03:50;10.50;;;7.25;;
44026;SDS011;29696;55.698;37.460;2023-06-26T09:06:17;14.75;;;7.05;;
44026;SDS011;29696;55.698;37.460;2023-06-26T09:08:44;11.57;;;6.95;;
44026;SDS011;29696;55.698;37.460;2023-06-26T09:11:11;10.98;;;5.80;;
44026;SDS011;29696;55.698;37.460;2023-06-26T09:13:37;16.45;;;7.75;;
44026;SDS011;29696;55.698;37.460;2023-06-26T09:16:06;13.45;;;7.15;;
44026;SDS011;29696;55.698;37.460;2023-06-26T09:18:34;12.38;;;6.47;;
44026;SDS011;29696;55.698;37.460;2023-06-26T09:21:05;10.48;;;6.97;;
44026;SDS011;29696;55.698;37.460;2023-06-26T09:23:34;10.73;;;6.32;;
44026;SDS011;29696;55.698;37.460;2023-06-26T09:26:02;14.43;;;8.65;;
44026;SDS011;29696;55.698;37.460;2023-06-26T09:28:30;15.30;;;7.90;;
44026;SDS011;29696;55.698;37.460;2023-06-26T09:31:00;8.65;;;6.35;;
44026;SDS011;29696;55.698;37.460;2023-06-26T09:33:33;10.13;;;6.90;;
44026;SDS011;29696;55.698;37.460;2023-06-26T09:36:06;12.27;;;6.70;;
44026;SDS011;29696;55.698;37.460;2023-06-26T09:38:35;13.40;;;7.25;;
44026;SDS011;29696;55.698;37.460;2023-06-26T09:41:02;17.08;;;7.10;;
44026;SDS011;29696;55.698;37.460;2023-06-26T09:43:29;16.25;;;7.15;;
44026;SDS011;29696;55.698;37.460;2023-06-26T09:45:57;8.23;;;7.43;;
44026;SDS011;29696;55.698;37.460;2023-06-26T09:48:24;10.98;;;6.45;;
44026;SDS011;29696;55.698;37.460;2023-06-26T09:50:51;6.78;;;6.05;;
44026;SDS011;29696;55.698;37.460;2023-06-26T09:53:17;11.27;;;5.85;;
44026;SDS011;29696;55.698;37.460;2023-06-26T09:55:44;11.10;;;6.53;;
44026;SDS011;29696;55.698;37.460;2023-06-26T09:58:11;11.57;;;6.63;;
44026;SDS011;29696;55.698;37.460;2023-06-26T10:00:42;7.60;;;6.80;;
44026;SDS011;29696;55.698;37.460;2023-06-26T10:03:10;10.88;;;7.35;;
44026;SDS011;29696;55.698;37.460;2023-06-26T10:05:39;12.05;;;6.38;;
44026;SDS011;29696;55.698;37.460;2023-06-26T10:08:06;8.35;;;6.75;;
44026;SDS011;29696;55.698;37.460;2023-06-26T10:10:37;9.80;;;5.47;;
44026;SDS011;29696;55.698;37.460;2023-06-26T10:13:08;7.55;;;4.90;;
44026;SDS011;29696;55.698;37.460;2023-06-26T10:15:41;7.15;;;5.15;;
44026;SDS011;29696;55.698;37.460;2023-06-26T10:18:11;9.80;;;5.78;;
44026;SDS011;29696;55.698;37.460;2023-06-26T10:20:39;8.55;;;5.57;;
44026;SDS011;29696;55.698;37.460;2023-06-26T10:23:08;7.95;;;5.20;;
44026;SDS011;29696;55.698;37.460;2023-06-26T10:25:36;9.52;;;5.82;;
44026;SDS011;29696;55.698;37.460;2023-06-26T10:28:07;8.50;;;5.18;;
44026;SDS011;29696;55.698;37.460;2023-06-26T10:30:36;6.82;;;4.95;;
44026;SDS011;29696;55.698;37.460;2023-06-26T10:33:03;5.72;;;4.80;;
44026;SDS011;29696;55.698;37.460;2023-06-26T10:35:31;9.65;;;4.78;;
44026;SDS011;29696;55.698;37.460;2023-06-26T10:38:01;5.60;;;4.72;;
44026;SDS011;29696;55.698;37.460;2023-06-26T10:40:48;7.03;;;4.70;;
44026;SDS011;29696;55.698;37.460;2023-06-26T10:43:15;8.25;;;6.30;;
44026;SDS011;29696;55.698;37.460;2023-06-26T10:45:46;17.67;;;8.07;;
44026;SDS011;29696;55.698;37.460;2023-06-26T10:48:18;6.43;;;5.65;;
44026;SDS011;29696;55.698;37.460;2023-06-26T10:50:47;6.32;;;4.95;;
44026;SDS011;29696;55.698;37.460;2023-06-26T10:56:06;9.38;;;5.47;;
44026;SDS011;29696;55.698;37.460;2023-06-26T11:01:40;7.63;;;5.05;;
44026;SDS011;29696;55.698;37.460;2023-06-26T11:04:09;8.07;;;5.80;;
44026;SDS011;29696;55.698;37.460;2023-06-26T11:06:37;8.13;;;5.45;;
44026;SDS011;29696;55.698;37.460;2023-06-26T11:14:38;14.45;;;6.05;;
44026;SDS011;29696;55.698;37.460;2023-06-26T11:17:05;8.57;;;5.43;;
44026;SDS011;29696;55.698;37.460;2023-06-26T11:19:31;8.70;;;5.72;;
44026;SDS011;29696;55.698;37.460;2023-06-26T11:21:58;9.70;;;5.88;;
44026;SDS011;29696;55.698;37.460;2023-06-26T11:24:26;10.75;;;6.25;;
44026;SDS011;29696;55.698;37.460;2023-06-26T11:26:55;7.05;;;6.35;;
44026;SDS011;29696;55.698;37.460;2023-06-26T11:29:28;6.05;;;5.20;;
44026;SDS011;29696;55.698;37.460;2023-06-26T11:32:03;7.38;;;4.75;;
44026;SDS011;29696;55.698;37.460;2023-06-26T11:34:32;7.68;;;6.05;;
44026;SDS011;29696;55.698;37.460;2023-06-26T11:36:59;7.25;;;5.32;;
44026;SDS011;29696;55.698;37.460;2023-06-26T11:39:27;6.60;;;5.38;;
44026;SDS011;29696;55.698;37.460;2023-06-26T11:41:53;6.47;;;5.45;;
44026;SDS011;29696;55.698;37.460;2023-06-26T11:44:20;6.95;;;5.28;;
44026;SDS011;29696;55.698;37.460;2023-06-26T11:46:47;13.02;;;6.82;;
44026;SDS011;29696;55.698;37.460;2023-06-26T11:49:16;10.23;;;6.05;;
44026;SDS011;29696;55.698;37.460;2023-06-26T11:51:43;12.95;;;7.63;;
44026;SDS011;29696;55.698;37.460;2023-06-26T11:54:09;9.35;;;5.53;;
44026;SDS011;29696;55.698;37.460;2023-06-26T11:56:37;8.95;;;5.97;;
44026;SDS011;29696;55.698;37.460;2023-06-26T11:59:04;8.82;;;5.60;;
44026;SDS011;29696;55.698;37.460;2023-06-26T12:04:22;12.35;;;5.75;;
44026;SDS011;29696;55.698;37.460;2023-06-26T12:06:50;8.93;;;6.28;;
44026;SDS011;29696;55.698;37.460;2023-06-26T12:09:23;9.57;;;6.32;;
44026;SDS011;29696;55.698;37.460;2023-06-26T12:11:52;9.23;;;7.45;;
44026;SDS011;29696;55.698;37.460;2023-06-26T12:14:20;9.55;;;7.05;;
44026;SDS011;29696;55.698;37.460;2023-06-26T12:16:48;10.68;;;7.05;;
44026;SDS011;29696;55.698;37.460;2023-06-26T12:19:15;13.40;;;7.15;;
44026;SDS011;29696;55.698;37.460;2023-06-26T12:24:31;9.30;;;6.18;;
44026;SDS011;29696;55.698;37.460;2023-06-26T12:26:58;13.73;;;6.63;;
44026;SDS011;29696;55.698;37.460;2023-06-26T12:29:33;8.07;;;6.00;;
44026;SDS011;29696;55.698;37.460;2023-06-26T12:32:02;8.55;;;6.38;;
44026;SDS011;29696;55.698;37.460;2023-06-26T12:34:31;8.73;;;6.38;;
44026;SDS011;29696;55.698;37.460;2023-06-26T12:37:01;10.05;;;6.43;;
44026;SDS011;29696;55.698;37.460;2023-06-26T12:39:29;8.68;;;5.43;;
44026;SDS011;29696;55.698;37.460;2023-06-26T12:41:57;7.47;;;6.50;;
44026;SDS011;29696;55.698;37.460;2023-06-26T12:44:27;8.32;;;6.10;;
44026;SDS011;29696;55.698;37.460;2023-06-26T12:46:56;9.50;;;6.13;;
44026;SDS011;29696;55.698;37.460;2023-06-26T12:52:17;7.93;;;6.03;;
44026;SDS011;29696;55.698;37.460;2023-06-26T12:54:47;9.25;;;6.63;;
44026;SDS011;29696;55.698;37.460;2023-06-26T12:57:18;11.52;;;6.53;;
44026;SDS011;29696;55.698;37.460;2023-06-26T12:59:44;8.80;;;6.18;;
44026;SDS011;29696;55.698;37.460;2023-06-26T13:02:10;10.75;;;5.95;;
44026;SDS011;29696;55.698;37.460;2023-06-26T13:04:37;9.57;;;5.53;;
44026;SDS011;29696;55.698;37.460;2023-06-26T13:07:07;12.88;;;6.25;;
44026;SDS011;29696;55.698;37.460;2023-06-26T13:09:34;12.23;;;6.63;;
44026;SDS011;29696;55.698;37.460;2023-06-26T13:12:03;8.57;;;5.78;;
44026;SDS011;29696;55.698;37.460;2023-06-26T13:14:30;16.27;;;7.35;;
44026;SDS011;29696;55.698;37.460;2023-06-26T13:16:57;7.25;;;5.43;;
44026;SDS011;29696;55.698;37.460;2023-06-26T13:19:24;9.20;;;5.82;;
44026;SDS011;29696;55.698;37.460;2023-06-26T13:21:50;7.60;;;6.80;;
44026;SDS011;29696;55.698;37.460;2023-06-26T13:24:16;9.27;;;5.97;;
44026;SDS011;29696;55.698;37.460;2023-06-26T13:26:43;6.15;;;4.93;;
44026;SDS011;29696;55.698;37.460;2023-06-26T13:29:09;7.85;;;5.88;;
44026;SDS011;29696;55.698;37.460;2023-06-26T13:31:36;8.05;;;5.40;;
44026;SDS011;29696;55.698;37.460;2023-06-26T13:34:02;9.30;;;6.07;;
44026;SDS011;29696;55.698;37.460;2023-06-26T13:36:31;13.88;;;5.07;;
44026;SDS011;29696;55.698;37.460;2023-06-26T13:39:00;6.65;;;5.30;;
44026;SDS011;29696;55.698;37.460;2023-06-26T13:41:26;9.75;;;6.13;;
44026;SDS011;29696;55.698;37.460;2023-06-26T13:43:54;5.82;;;4.97;;
44026;SDS011;29696;55.698;37.460;2023-06-26T13:46:20;6.05;;;4.93;;
44026;SDS011;29696;55.698;37.460;2023-06-26T13:48:47;7.22;;;6.18;;
44026;SDS011;29696;55.698;37.460;2023-06-26T13:51:13;9.90;;;5.93;;
44026;SDS011;29696;55.698;37.460;2023-06-26T13:53:40;11.90;;;5.05;;
44026;SDS011;29696;55.698;37.460;2023-06-26T13:56:06;8.43;;;6.03;;
44026;SDS011;29696;55.698;37.460;2023-06-26T13:58:34;12.35;;;6.43;;
44026;SDS011;29696;55.698;37.460;2023-06-26T14:01:02;9.40;;;5.80;;
44026;SDS011;29696;55.698;37.460;2023-06-26T14:03:29;6.97;;;5.80;;
44026;SDS011;29696;55.698;37.460;2023-06-26T14:05:56;11.65;;;8.75;;
44026;SDS011;29696;55.698;37.460;2023-06-26T14:08:22;8.63;;;6.05;;
44026;SDS011;29696;55.698;37.460;2023-06-26T14:10:48;12.13;;;5.85;;
44026;SDS011;29696;55.698;37.460;2023-06-26T14:13:15;9.82;;;5.75;;
44026;SDS011;29696;55.698;37.460;2023-06-26T14:15:41;14.60;;;5.75;;
44026;SDS011;29696;55.698;37.460;2023-06-26T14:18:08;7.72;;;5.15;;
44026;SDS011;29696;55.698;37.460;2023-06-26T14:20:35;6.63;;;5.30;;
44026;SDS011;29696;55.698;37.460;2023-06-26T14:23:02;7.30;;;6.18;;
44026;SDS011;29696;55.698;37.460;2023-06-26T14:25:28;9.48;;;6.05;;
44026;SDS011;29696;55.698;37.460;2023-06-26T14:27:55;5.45;;;4.68;;
44026;SDS011;29696;55.698;37.460;2023-06-26T14:30:23;7.22;;;4.63;;
44026;SDS011;29696;55.698;37.460;2023-06-26T14:32:49;7.15;;;5.10;;
44026;SDS011;29696;55.698;37.460;2023-06-26T14:35:16;7.38;;;5.30;;
44026;SDS011;29696;55.698;37.460;2023-06-26T14:37:42;12.55;;;4.82;;
44026;SDS011;29696;55.698;37.460;2023-06-26T14:40:10;9.10;;;5.35;;
44026;SDS011;29696;55.698;37.460;2023-06-26T14:42:37;13.95;;;5.90;;
44026;SDS011;29696;55.698;37.460;2023-06-26T14:45:03;5.40;;;4.88;;
44026;SDS011;29696;55.698;37.460;2023-06-26T14:47:32;14.77;;;6.38;;
44026;SDS011;29696;55.698;37.460;2023-06-26T14:49:59;8.15;;;5.70;;
44026;SDS011;29696;55.698;37.460;2023-06-26T14:52:26;8.63;;;5.78;;
44026;SDS011;29696;55.698;37.460;2023-06-26T14:54:52;21.25;;;8.02;;
44026;SDS011;29696;55.698;37.460;2023-06-26T14:57:19;10.45;;;5.45;;
44026;SDS011;29696;55.698;37.460;2023-06-26T14:59:45;7.55;;;5.10;;